createdAt,value
2019-01-06T00:01:52.332Z,9.03
2019-01-06T00:04:37.971Z,10.47
2019-01-06T00:07:29.006Z,9.10
2019-01-06T00:10:14.661Z,9.80
2019-01-06T00:13:00.400Z,9.73
2019-01-06T00:15:48.327Z,9.60
2019-01-06T00:18:36.383Z,9.57
2019-01-06T00:21:22.160Z,8.77
2019-01-06T00:24:10.436Z,10.00
2019-01-06T00:26:55.923Z,9.50
2019-01-06T00:29:36.316Z,10.30
2019-01-06T00:32:25.993Z,11.20
2019-01-06T00:35:13.005Z,10.57
2019-01-06T00:38:01.597Z,10.27
2019-01-06T00:41:00.795Z,11.00
2019-01-06T00:43:46.404Z,10.63
2019-01-06T00:46:16.359Z,10.10
2019-01-06T00:49:03.421Z,9.73
2019-01-06T00:51:51.409Z,9.57
2019-01-06T00:54:43.283Z,8.80
2019-01-06T00:57:32.920Z,9.73
2019-01-06T01:00:28.819Z,8.50
2019-01-06T01:03:15.810Z,10.07
2019-01-06T01:06:14.926Z,10.37
2019-01-06T01:09:11.368Z,9.40
2019-01-06T01:12:01.227Z,10.00
2019-01-06T01:14:53.947Z,8.83
2019-01-06T01:17:55.918Z,8.67
2019-01-06T01:20:30.027Z,9.63
2019-01-06T01:23:16.961Z,9.70
2019-01-06T01:26:06.721Z,9.90
2019-01-06T01:28:54.852Z,8.80
2019-01-06T01:31:40.525Z,7.83
2019-01-06T01:34:33.569Z,8.87
2019-01-06T01:37:27.310Z,8.03
2019-01-06T01:40:16.935Z,10.47
2019-01-06T01:43:02.777Z,7.77
2019-01-06T01:45:48.804Z,8.87
2019-01-06T01:48:43.951Z,7.47
2019-01-06T01:51:41.785Z,8.03
2019-01-06T01:54:30.155Z,7.47
2019-01-06T01:57:31.139Z,7.23
2019-01-06T02:00:18.005Z,8.43
2019-01-06T02:03:08.103Z,7.73
2019-01-06T02:05:53.947Z,7.27
2019-01-06T02:08:53.228Z,7.47
2019-01-06T02:11:40.241Z,8.20
2019-01-06T02:14:39.571Z,8.10
2019-01-06T02:17:25.172Z,8.87
2019-01-06T02:20:21.928Z,8.27
2019-01-06T02:23:17.742Z,7.70
2019-01-06T02:26:07.493Z,9.70
2019-01-06T02:28:56.481Z,8.20
2019-01-06T02:32:01.003Z,8.83
2019-01-06T02:34:52.314Z,8.73
2019-01-06T02:37:48.451Z,8.27
2019-01-06T02:40:53.505Z,9.17
2019-01-06T02:43:39.275Z,8.20
2019-01-06T02:46:26.256Z,8.27
2019-01-06T02:49:25.047Z,8.67
2019-01-06T02:52:12.440Z,8.10
2019-01-06T02:54:57.892Z,7.97
2019-01-06T02:57:53.446Z,8.00
2019-01-06T03:00:49.262Z,8.60
2019-01-06T03:03:42.207Z,8.33
2019-01-06T03:06:27.862Z,8.17
2019-01-06T03:09:13.800Z,7.87
2019-01-06T03:12:09.554Z,8.83
2019-01-06T03:14:59.497Z,8.07
2019-01-06T03:17:52.404Z,7.33
2019-01-06T03:20:57.759Z,9.20
2019-01-06T03:23:45.496Z,8.40
2019-01-06T03:26:35.465Z,8.37
2019-01-06T03:29:31.366Z,8.47
2019-01-06T03:32:21.285Z,6.97
2019-01-06T03:35:05.689Z,8.33
2019-01-06T03:37:56.705Z,7.97
2019-01-06T03:40:49.399Z,8.13
2019-01-06T03:43:37.634Z,7.80
2019-01-06T03:46:28.093Z,7.27
2019-01-06T03:49:27.327Z,9.07
2019-01-06T03:52:13.130Z,8.90
2019-01-06T03:55:14.862Z,8.43
2019-01-06T03:58:03.172Z,7.30
2019-01-06T04:00:55.908Z,8.30
2019-01-06T04:03:42.412Z,9.27
2019-01-06T04:06:38.683Z,7.93
2019-01-06T04:09:25.798Z,8.80
2019-01-06T04:12:11.610Z,7.93
2019-01-06T04:15:05.424Z,8.43
2019-01-06T04:17:51.350Z,8.40
2019-01-06T04:20:38.088Z,7.80
2019-01-06T04:23:30.194Z,8.00
2019-01-06T04:26:26.283Z,7.37
2019-01-06T04:29:17.468Z,7.87
2019-01-06T04:32:03.688Z,7.83
2019-01-06T04:34:49.112Z,6.93
2019-01-06T04:37:36.046Z,7.53
2019-01-06T04:40:35.395Z,6.83
2019-01-06T04:43:22.398Z,6.20
2019-01-06T04:46:07.861Z,6.87
2019-01-06T04:48:53.612Z,7.53
2019-01-06T04:51:55.822Z,7.50
2019-01-06T04:54:51.600Z,7.33
2019-01-06T04:57:37.003Z,7.40
2019-01-06T05:00:24.583Z,7.23
2019-01-06T05:03:17.556Z,6.40
2019-01-06T05:06:13.483Z,6.57
2019-01-06T05:09:02.488Z,5.57
2019-01-06T05:11:42.818Z,6.07
2019-01-06T05:14:34.230Z,6.00
2019-01-06T05:17:36.218Z,6.53
2019-01-06T05:20:29.553Z,6.87
2019-01-06T05:23:19.312Z,6.70
2019-01-06T05:26:05.294Z,5.77
2019-01-06T05:28:45.165Z,5.73
2019-01-06T05:31:44.172Z,6.50
2019-01-06T05:34:31.790Z,6.57
2019-01-06T05:37:15.517Z,6.10
2019-01-06T05:40:05.545Z,5.27
2019-01-06T05:42:58.555Z,6.07
2019-01-06T05:45:44.984Z,5.70
2019-01-06T05:48:30.747Z,4.97
2019-01-06T05:51:25.333Z,6.00
2019-01-06T05:54:21.309Z,6.73
2019-01-06T05:57:13.368Z,6.33
2019-01-06T06:00:01.471Z,6.03
2019-01-06T06:02:47.113Z,4.57
2019-01-06T06:05:43.271Z,6.43
2019-01-06T06:08:35.328Z,6.07
2019-01-06T06:11:31.591Z,6.60
2019-01-06T06:14:18.731Z,5.73
2019-01-06T06:17:08.725Z,6.37
2019-01-06T06:19:55.696Z,5.77
2019-01-06T06:22:42.682Z,5.73
2019-01-06T06:25:28.351Z,6.03
2019-01-06T06:28:14.157Z,5.00
2019-01-06T06:31:10.313Z,5.87
2019-01-06T06:33:58.940Z,6.23
2019-01-06T06:36:45.291Z,6.67
2019-01-06T06:39:35.482Z,6.23
2019-01-06T06:42:12.103Z,5.37
2019-01-06T06:45:01.885Z,6.10
2019-01-06T06:47:48.833Z,6.47
2019-01-06T06:50:34.469Z,6.73
2019-01-06T06:53:30.711Z,6.50
2019-01-06T06:56:16.473Z,5.73
2019-01-06T06:59:03.424Z,6.27
2019-01-06T07:02:29.189Z,5.57
2019-01-06T07:05:31.175Z,5.90
2019-01-06T07:08:16.772Z,5.87
2019-01-06T07:10:59.827Z,4.67
2019-01-06T07:13:50.326Z,6.43
2019-01-06T07:17:12.580Z,5.87
2019-01-06T07:20:00.882Z,5.93
2019-01-06T07:22:47.824Z,6.50
2019-01-06T07:25:33.364Z,6.47
2019-01-06T07:28:20.354Z,6.63
2019-01-06T07:31:25.690Z,6.37
2019-01-06T07:34:11.248Z,6.67
2019-01-06T07:36:56.523Z,7.40
2019-01-06T07:39:39.952Z,6.50
2019-01-06T07:42:26.940Z,6.37
2019-01-06T07:45:29.327Z,6.50
2019-01-06T07:48:17.996Z,6.13
2019-01-06T07:51:22.934Z,5.97
2019-01-06T07:54:09.105Z,5.97
2019-01-06T07:57:01.772Z,6.73
2019-01-06T07:59:43.498Z,7.70
2019-01-06T08:02:31.085Z,6.93
2019-01-06T08:05:09.438Z,6.43
2019-01-06T08:07:49.580Z,6.90
2019-01-06T08:10:43.853Z,7.23
2019-01-06T08:13:25.935Z,7.27
2019-01-06T08:16:11.938Z,5.97
2019-01-06T08:19:09.338Z,7.50
2019-01-06T08:22:02.134Z,7.33
2019-01-06T08:24:47.925Z,7.90
2019-01-06T08:27:37.490Z,6.33
2019-01-06T08:30:33.408Z,7.53
2019-01-06T08:33:19.394Z,9.60
2019-01-06T08:36:05.060Z,8.27
2019-01-06T08:39:01.132Z,6.13
2019-01-06T08:41:51.138Z,7.37
2019-01-06T08:44:36.866Z,7.80
2019-01-06T08:47:33.138Z,7.40
2019-01-06T08:50:18.822Z,6.87
2019-01-06T08:52:57.734Z,8.00
2019-01-06T08:55:53.656Z,8.27
2019-01-06T08:58:49.659Z,8.20
2019-01-06T09:01:54.679Z,6.73
2019-01-06T09:04:45.810Z,7.47
2019-01-06T09:07:40.671Z,6.30
2019-01-06T09:10:28.142Z,7.43
2019-01-06T09:13:18.068Z,7.30
2019-01-06T09:16:07.840Z,7.73
2019-01-06T09:18:52.110Z,7.80
2019-01-06T09:21:59.636Z,8.73
2019-01-06T09:24:45.200Z,7.77
2019-01-06T09:27:35.279Z,6.73
2019-01-06T09:30:23.080Z,7.33
2019-01-06T09:33:13.046Z,8.47
2019-01-06T09:36:06.015Z,7.70
2019-01-06T09:39:08.047Z,8.17
2019-01-06T09:42:03.833Z,7.83
2019-01-06T09:44:49.488Z,8.63
2019-01-06T09:47:48.106Z,8.07
2019-01-06T09:50:36.389Z,7.97
2019-01-06T09:53:32.401Z,7.70
2019-01-06T09:56:16.903Z,8.07
2019-01-06T09:59:03.857Z,8.10
2019-01-06T10:01:52.876Z,9.90
2019-01-06T10:04:38.844Z,8.73
2019-01-06T10:07:34.949Z,8.73
2019-01-06T10:10:26.245Z,8.90
2019-01-06T10:13:19.120Z,8.53
2019-01-06T10:16:18.646Z,8.33
2019-01-06T10:18:53.390Z,8.37
2019-01-06T10:21:55.207Z,9.10
2019-01-06T10:24:51.629Z,8.70
2019-01-06T10:27:32.363Z,8.37
2019-01-06T10:30:34.121Z,9.30
2019-01-06T10:33:39.466Z,8.73
2019-01-06T10:36:28.881Z,9.93
2019-01-06T10:39:14.406Z,9.37
2019-01-06T10:41:59.851Z,10.57
2019-01-06T10:44:57.399Z,9.80
2019-01-06T10:47:42.915Z,10.77
2019-01-06T10:50:28.782Z,10.70
2019-01-06T10:53:14.665Z,9.63
2019-01-06T10:56:00.561Z,10.43
2019-01-06T10:58:52.470Z,11.03
2019-01-06T11:01:51.553Z,9.43
2019-01-06T11:04:50.763Z,9.80
2019-01-06T11:07:50.820Z,10.93
2019-01-06T11:10:36.742Z,10.90
2019-01-06T11:13:22.569Z,11.07
2019-01-06T11:16:10.156Z,11.63
2019-01-06T11:19:06.088Z,9.87
2019-01-06T11:21:46.330Z,11.30
2019-01-06T11:24:27.699Z,11.53
2019-01-06T11:27:14.587Z,11.97
2019-01-06T11:30:00.166Z,11.30
2019-01-06T11:32:42.083Z,12.90
2019-01-06T11:35:27.590Z,12.90
2019-01-06T11:38:17.750Z,11.47
2019-01-06T11:41:13.777Z,12.20
2019-01-06T11:44:09.568Z,11.43
2019-01-06T11:47:03.208Z,11.27
2019-01-06T11:49:59.137Z,10.20
2019-01-06T11:52:48.859Z,11.87
2019-01-06T11:55:34.367Z,13.00
2019-01-06T11:58:39.750Z,11.53
2019-01-06T12:01:29.666Z,11.83
2019-01-06T12:04:34.082Z,11.77
2019-01-06T12:07:27.115Z,11.20
2019-01-06T12:10:08.305Z,12.17
2019-01-06T12:13:07.356Z,12.40
2019-01-06T12:15:52.931Z,11.50
2019-01-06T12:18:38.694Z,12.47
2019-01-06T12:21:44.111Z,11.90
2019-01-06T12:24:31.114Z,13.53
2019-01-06T12:27:14.139Z,11.57
2019-01-06T12:30:01.145Z,12.40
2019-01-06T12:33:19.521Z,12.67
2019-01-06T12:36:07.598Z,12.17
2019-01-06T12:39:09.680Z,13.13
2019-01-06T12:41:59.460Z,12.57
2019-01-06T12:44:45.222Z,10.73
2019-01-06T12:47:32.882Z,11.53
2019-01-06T12:50:32.066Z,13.33
2019-01-06T12:53:12.656Z,12.27
2019-01-06T12:56:14.712Z,12.43
2019-01-06T12:59:20.237Z,11.93
2019-01-06T13:02:10.132Z,12.03
2019-01-06T13:04:56.197Z,10.83
2019-01-06T13:07:42.098Z,11.67
2019-01-06T13:10:27.945Z,10.87
2019-01-06T13:13:23.966Z,11.83
2019-01-06T13:16:19.891Z,11.90
2019-01-06T13:19:09.297Z,12.97
2019-01-06T13:21:53.768Z,11.60
2019-01-06T13:24:39.302Z,12.33
2019-01-06T13:27:25.006Z,12.33
2019-01-06T13:30:10.888Z,12.17
2019-01-06T13:32:57.968Z,12.70
2019-01-06T13:35:44.378Z,11.90
2019-01-06T13:38:28.736Z,12.67
2019-01-06T13:41:30.704Z,11.83
2019-01-06T13:44:16.181Z,13.73
2019-01-06T13:46:55.514Z,12.70
2019-01-06T13:49:41.370Z,13.10
2019-01-06T13:52:40.652Z,14.30
2019-01-06T13:55:26.325Z,12.93
2019-01-06T13:58:32.965Z,13.07
2019-01-06T14:01:18.683Z,12.43
2019-01-06T14:04:11.165Z,11.80
2019-01-06T14:07:10.228Z,12.73
2019-01-06T14:09:56.230Z,13.33
2019-01-06T14:12:46.205Z,12.07
2019-01-06T14:15:42.392Z,12.93
2019-01-06T14:18:38.645Z,13.37
2019-01-06T14:21:28.692Z,12.33
2019-01-06T14:24:14.925Z,13.03
2019-01-06T14:27:20.242Z,13.33
2019-01-06T14:30:13.011Z,13.97
2019-01-06T14:32:58.568Z,13.27
2019-01-06T14:35:47.565Z,12.90
2019-01-06T14:38:34.457Z,14.93
2019-01-06T14:41:27.316Z,15.27
2019-01-06T14:44:12.765Z,13.63
2019-01-06T14:46:58.495Z,15.17
2019-01-06T14:49:44.365Z,14.77
2019-01-06T14:52:49.666Z,14.43
2019-01-06T14:55:39.465Z,15.10
2019-01-06T14:58:23.601Z,14.17
2019-01-06T15:01:09.201Z,15.17
2019-01-06T15:03:55.113Z,14.73
2019-01-06T15:06:54.384Z,14.23
2019-01-06T15:09:40.239Z,14.70
2019-01-06T15:12:21.991Z,14.17
2019-01-06T15:15:08.122Z,13.63
2019-01-06T15:17:53.840Z,14.87
2019-01-06T15:20:40.823Z,15.90
2019-01-06T15:23:38.855Z,14.70
2019-01-06T15:26:35.299Z,14.03
2019-01-06T15:29:25.479Z,14.40
2019-01-06T15:32:11.302Z,15.07
2019-01-06T15:34:57.210Z,15.23
2019-01-06T15:37:43.165Z,15.47
2019-01-06T15:40:30.125Z,16.77
2019-01-06T15:43:22.955Z,16.67
2019-01-06T15:46:21.906Z,17.20
2019-01-06T15:49:14.862Z,15.30
2019-01-06T15:52:10.376Z,16.47
2019-01-06T15:55:05.869Z,15.63
2019-01-06T15:58:07.111Z,16.63
2019-01-06T16:00:52.721Z,14.80
2019-01-06T16:03:38.524Z,17.43
2019-01-06T16:06:29.131Z,14.57
2019-01-06T16:09:16.310Z,14.07
2019-01-06T16:12:18.658Z,15.73
2019-01-06T16:15:04.177Z,14.97
2019-01-06T16:17:59.989Z,15.17
2019-01-06T16:20:46.955Z,16.73
2019-01-06T16:23:36.147Z,16.80
2019-01-06T16:26:12.658Z,15.67
2019-01-06T16:28:58.479Z,15.90
2019-01-06T16:31:50.534Z,14.10
2019-01-06T16:34:55.366Z,15.30
2019-01-06T16:37:54.580Z,16.40
2019-01-06T16:40:56.369Z,15.37
2019-01-06T16:43:41.914Z,15.83
2019-01-06T16:46:27.800Z,18.30
2019-01-06T16:49:17.724Z,18.70
2019-01-06T16:52:04.259Z,17.20
2019-01-06T16:55:00.429Z,16.93
2019-01-06T16:57:53.207Z,20.17
2019-01-06T17:00:38.763Z,15.60
2019-01-06T17:03:24.704Z,19.70
2019-01-06T17:06:23.936Z,19.53
2019-01-06T17:09:19.785Z,17.27
2019-01-06T17:12:05.457Z,17.97
2019-01-06T17:14:55.482Z,17.03
2019-01-06T17:17:41.144Z,16.73
2019-01-06T17:20:40.461Z,17.23
2019-01-06T17:23:27.440Z,18.90
2019-01-06T17:26:32.425Z,16.80
2019-01-06T17:29:31.079Z,19.20
2019-01-06T17:32:18.100Z,15.90
2019-01-06T17:35:20.127Z,16.83
2019-01-06T17:38:16.742Z,17.30
2019-01-06T17:41:06.350Z,17.03
2019-01-06T17:43:54.132Z,17.20
2019-01-06T17:46:53.397Z,18.43
2019-01-06T17:49:59.255Z,17.57
2019-01-06T17:52:52.423Z,14.87
2019-01-06T17:55:39.579Z,16.47
2019-01-06T17:58:26.531Z,15.60
2019-01-06T18:01:12.152Z,19.37
2019-01-06T18:03:57.952Z,18.20
2019-01-06T18:06:46.325Z,16.70
2019-01-06T18:09:39.060Z,17.53
2019-01-06T18:12:21.129Z,17.83
2019-01-06T18:15:08.909Z,16.07
2019-01-06T18:17:55.809Z,18.43
2019-01-06T18:21:01.166Z,15.30
2019-01-06T18:23:59.449Z,16.20
2019-01-06T18:26:50.591Z,16.63
2019-01-06T18:29:37.563Z,16.17
2019-01-06T18:32:42.745Z,15.67
2019-01-06T18:35:24.700Z,17.00
2019-01-06T18:38:11.571Z,17.33
2019-01-06T18:41:04.445Z,18.97
2019-01-06T18:43:53.292Z,18.70
2019-01-06T18:46:33.240Z,18.03
2019-01-06T18:49:18.613Z,18.90
2019-01-06T18:52:17.871Z,18.07
2019-01-06T18:55:05.067Z,19.57
2019-01-06T18:58:07.018Z,17.33
2019-01-06T19:00:52.537Z,17.87
2019-01-06T19:03:51.468Z,16.77
2019-01-06T19:06:44.327Z,16.70
2019-01-06T19:09:46.349Z,16.60
2019-01-06T19:12:33.276Z,16.97
2019-01-06T19:15:14.891Z,17.50
2019-01-06T19:18:00.381Z,17.10
2019-01-06T19:20:46.093Z,15.77
2019-01-06T19:23:45.295Z,16.63
2019-01-06T19:26:35.028Z,17.70
2019-01-06T19:29:23.668Z,16.30
2019-01-06T19:32:09.267Z,16.00
2019-01-06T19:35:01.965Z,16.63
2019-01-06T19:37:53.549Z,18.03
2019-01-06T19:40:40.538Z,20.43
2019-01-06T19:43:26.305Z,17.03
2019-01-06T19:46:25.083Z,19.13
2019-01-06T19:49:10.546Z,16.97
2019-01-06T19:51:56.476Z,17.43
2019-01-06T19:54:43.449Z,18.17
2019-01-06T19:57:24.312Z,18.93
2019-01-06T20:00:11.305Z,18.53
2019-01-06T20:02:56.805Z,18.10
2019-01-06T20:05:49.855Z,17.57
2019-01-06T20:08:36.805Z,15.07
2019-01-06T20:11:29.696Z,17.47
2019-01-06T20:14:16.696Z,15.80
2019-01-06T20:17:09.623Z,15.23
2019-01-06T20:19:55.175Z,15.67
2019-01-06T20:22:54.378Z,16.03
2019-01-06T20:25:41.223Z,14.13
2019-01-06T20:28:31.042Z,16.07
2019-01-06T20:31:25.804Z,15.60
2019-01-06T20:34:22.004Z,15.47
2019-01-06T20:37:07.828Z,15.60
2019-01-06T20:40:03.977Z,15.30
2019-01-06T20:42:49.612Z,15.70
2019-01-06T20:45:35.395Z,16.10
2019-01-06T20:48:28.606Z,14.70
2019-01-06T20:51:12.290Z,14.73
2019-01-06T20:54:14.360Z,14.23
2019-01-06T20:57:13.348Z,15.67
2019-01-06T21:00:18.343Z,12.77
2019-01-06T21:03:17.280Z,14.83
2019-01-06T21:06:07.275Z,16.33
2019-01-06T21:08:53.258Z,15.03
2019-01-06T21:11:42.760Z,15.37
2019-01-06T21:14:28.559Z,13.43
2019-01-06T21:17:14.430Z,14.97
2019-01-06T21:20:00.269Z,12.63
2019-01-06T21:22:46.154Z,13.40
2019-01-06T21:25:30.216Z,13.83
2019-01-06T21:28:15.747Z,15.40
2019-01-06T21:31:05.902Z,15.00
2019-01-06T21:33:51.454Z,13.53
2019-01-06T21:36:37.295Z,13.73
2019-01-06T21:39:24.432Z,13.00
2019-01-06T21:42:10.057Z,13.53
2019-01-06T21:44:55.922Z,13.17
2019-01-06T21:47:41.935Z,13.63
2019-01-06T21:50:34.945Z,14.40
2019-01-06T21:53:33.994Z,13.60
2019-01-06T21:56:29.848Z,13.13
2019-01-06T21:59:19.909Z,13.17
2019-01-06T22:02:05.689Z,13.23
2019-01-06T22:04:51.738Z,13.80
2019-01-06T22:07:44.778Z,13.00
2019-01-06T22:10:34.524Z,13.50
2019-01-06T22:13:20.244Z,12.73
2019-01-06T22:16:05.894Z,13.70
2019-01-06T22:19:02.127Z,12.37
2019-01-06T22:21:55.255Z,13.40
2019-01-06T22:24:48.471Z,13.17
2019-01-06T22:27:34.331Z,12.07
2019-01-06T22:30:20.009Z,14.27
2019-01-06T22:33:05.898Z,12.30
2019-01-06T22:36:07.727Z,12.67
2019-01-06T22:38:53.404Z,13.40
2019-01-06T22:41:50.338Z,13.57
2019-01-06T22:44:30.076Z,12.73
2019-01-06T22:47:15.427Z,13.10
2019-01-06T22:50:02.297Z,14.87
2019-01-06T22:52:49.244Z,13.50
2019-01-06T22:55:39.215Z,12.23
2019-01-06T22:58:41.141Z,12.67
2019-01-06T23:01:23.591Z,13.83
2019-01-06T23:04:10.466Z,14.10
2019-01-06T23:06:48.575Z,14.93
2019-01-06T23:09:47.187Z,13.63
2019-01-06T23:12:32.918Z,14.13
2019-01-06T23:15:33.676Z,13.43
2019-01-06T23:18:20.661Z,13.40
2019-01-06T23:21:07.604Z,13.63
2019-01-06T23:23:53.291Z,13.23
2019-01-06T23:26:39.173Z,13.27
2019-01-06T23:29:25.858Z,14.20
2019-01-06T23:32:05.978Z,14.03
2019-01-06T23:35:02.097Z,13.50
2019-01-06T23:38:04.076Z,13.43
2019-01-06T23:40:49.920Z,13.03
2019-01-06T23:43:49.219Z,13.70
2019-01-06T23:46:34.727Z,13.23
2019-01-06T23:49:20.202Z,12.63
2019-01-06T23:52:19.404Z,14.00
2019-01-06T23:55:05.305Z,13.43
2019-01-06T23:58:01.572Z,13.60
